KIWD Weather

FAA AWOS (Automated Weather Observing System)

Weather observations for the last 3 days click here.

KIWD

METAR
KIWD 180156Z AUTO 20003KT 10SM CLR M17/M19 A3030 RMK AO2 SLP291 T11721194 FZRANO PNO $
KIWD 180056Z AUTO 25003KT 8SM CLR M17/M19 A3032 RMK AO2 SLP297 T11671189 FZRANO PNO $
TAF
KIWD 172326Z 1800/1824 26006KT P6SM FEW200 FM181400 24010KT P6SM FEW100 FM181600 24009KT P6SM SCT060 FM182000 25008KT P6SM BKN090